createdAt,value
2018-05-01T00:01:53.721Z,0.70
2018-05-01T00:03:58.184Z,0.80
2018-05-01T00:06:03.378Z,1.00
2018-05-01T00:08:07.574Z,1.13
2018-05-01T00:10:12.750Z,0.80
2018-05-01T00:12:16.894Z,0.93
2018-05-01T00:14:21.310Z,0.90
2018-05-01T00:16:25.758Z,0.90
2018-05-01T00:18:30.201Z,1.23
2018-05-01T00:20:34.641Z,0.80
2018-05-01T00:22:39.872Z,1.30
2018-05-01T00:24:44.277Z,1.30
2018-05-01T00:26:48.697Z,1.10
2018-05-01T00:28:53.378Z,0.80
2018-05-01T00:30:57.758Z,1.10
2018-05-01T00:33:02.991Z,1.00
2018-05-01T00:35:07.283Z,0.90
2018-05-01T00:37:11.762Z,1.03
2018-05-01T00:39:16.146Z,0.87
2018-05-01T00:41:20.594Z,1.30
2018-05-01T00:43:25.111Z,1.20
2018-05-01T00:45:30.270Z,0.90
2018-05-01T00:47:34.765Z,1.20
2018-05-01T00:49:39.177Z,1.00
2018-05-01T00:51:43.730Z,1.10
2018-05-01T00:53:48.424Z,0.90
2018-05-01T00:55:52.839Z,1.20
2018-05-01T00:57:57.230Z,1.40
2018-05-01T01:00:01.668Z,1.20
2018-05-01T01:02:05.810Z,1.03
2018-05-01T01:04:10.238Z,1.40
2018-05-01T01:06:14.056Z,1.20
2018-05-01T01:08:19.245Z,0.90
2018-05-01T01:10:23.969Z,1.20
2018-05-01T01:12:28.386Z,1.00
2018-05-01T01:14:32.589Z,0.90
2018-05-01T01:16:36.800Z,0.87
2018-05-01T01:18:41.181Z,0.80
2018-05-01T01:20:44.671Z,1.13
2018-05-01T01:22:48.923Z,0.90
2018-05-01T01:24:53.335Z,1.03
2018-05-01T01:26:57.751Z,0.80
2018-05-01T01:29:02.195Z,1.10
2018-05-01T01:31:07.108Z,0.80
2018-05-01T01:33:11.313Z,0.80
2018-05-01T01:35:14.322Z,0.70
2018-05-01T01:37:17.347Z,0.80
2018-05-01T01:39:20.614Z,1.00
2018-05-01T01:41:24.655Z,0.80
2018-05-01T01:43:27.910Z,0.80
2018-05-01T01:45:32.313Z,0.60
2018-05-01T01:47:35.587Z,1.03
2018-05-01T01:49:38.963Z,0.80
2018-05-01T01:51:42.219Z,0.83
2018-05-01T01:53:45.482Z,0.87
2018-05-01T01:55:49.547Z,0.60
2018-05-01T01:57:52.794Z,0.67
2018-05-01T01:59:56.826Z,0.70
2018-05-01T02:02:00.103Z,0.60
2018-05-01T02:04:03.378Z,0.63
2018-05-01T02:06:07.398Z,0.70
2018-05-01T02:08:10.675Z,0.73
2018-05-01T02:10:14.759Z,0.80
2018-05-01T02:12:18.046Z,0.70
2018-05-01T02:14:21.318Z,0.83
2018-05-01T02:16:24.326Z,0.80
2018-05-01T02:18:27.321Z,0.87
2018-05-01T02:20:30.781Z,0.73
2018-05-01T02:22:34.069Z,0.60
2018-05-01T02:24:37.714Z,0.80
2018-05-01T02:26:41.049Z,0.77
2018-05-01T02:28:44.322Z,0.70
2018-05-01T02:30:47.626Z,0.67
2018-05-01T02:32:50.875Z,0.70
2018-05-01T02:34:55.032Z,1.07
2018-05-01T02:36:58.403Z,0.63
2018-05-01T02:39:01.870Z,1.00
2018-05-01T02:41:05.145Z,0.80
2018-05-01T02:43:09.095Z,2.63
2018-05-01T02:45:12.363Z,0.80
2018-05-01T02:47:15.688Z,1.10
2018-05-01T02:49:18.981Z,0.77
2018-05-01T02:51:22.202Z,0.73
2018-05-01T02:53:25.490Z,0.60
2018-05-01T02:55:28.485Z,0.70
2018-05-01T02:57:31.743Z,0.70
2018-05-01T02:59:35.047Z,0.67
2018-05-01T03:01:38.316Z,0.60
2018-05-01T03:03:41.574Z,0.60
2018-05-01T03:05:44.850Z,0.63
2018-05-01T03:07:48.884Z,0.63
2018-05-01T03:09:52.178Z,0.50
2018-05-01T03:11:56.427Z,0.80
2018-05-01T03:14:01.198Z,0.87
2018-05-01T03:16:04.483Z,0.93
2018-05-01T03:18:08.498Z,0.60
2018-05-01T03:20:11.762Z,0.70
2018-05-01T03:22:15.814Z,0.70
2018-05-01T03:24:19.078Z,0.83
2018-05-01T03:26:22.334Z,0.60
2018-05-01T03:28:25.630Z,0.80
2018-05-01T03:30:29.666Z,0.80
2018-05-01T03:32:32.958Z,0.80
2018-05-01T03:34:36.609Z,0.90
2018-05-01T03:36:39.887Z,0.77
2018-05-01T03:38:43.175Z,0.70
2018-05-01T03:40:46.467Z,0.90
2018-05-01T03:42:49.721Z,0.80
2018-05-01T03:44:52.983Z,0.73
2018-05-01T03:46:57.047Z,0.87
2018-05-01T03:49:00.323Z,0.93
2018-05-01T03:51:03.600Z,0.60
2018-05-01T03:53:06.598Z,0.67
2018-05-01T03:55:09.871Z,0.80
2018-05-01T03:57:13.218Z,0.90
2018-05-01T03:59:17.403Z,0.60
2018-05-01T04:01:20.398Z,0.97
2018-05-01T04:03:24.148Z,1.93
2018-05-01T04:05:27.129Z,0.70
2018-05-01T04:07:30.403Z,0.57
2018-05-01T04:09:35.781Z,0.73
2018-05-01T04:11:38.767Z,0.60
2018-05-01T04:13:42.055Z,0.70
2018-05-01T04:15:45.038Z,0.63
2018-05-01T04:17:48.298Z,0.70
2018-05-01T04:19:51.570Z,0.70
2018-05-01T04:21:55.599Z,0.70
2018-05-01T04:23:58.899Z,0.60
2018-05-01T04:26:02.191Z,0.60
2018-05-01T04:28:05.437Z,0.80
2018-05-01T04:30:08.690Z,0.80
2018-05-01T04:32:11.708Z,0.80
2018-05-01T04:34:14.987Z,0.70
2018-05-01T04:36:18.222Z,0.70
2018-05-01T04:38:21.536Z,0.70
2018-05-01T04:40:24.766Z,0.60
2018-05-01T04:42:28.805Z,0.60
2018-05-01T04:44:32.261Z,0.60
2018-05-01T04:46:35.519Z,0.90
2018-05-01T04:48:38.774Z,0.60
2018-05-01T04:50:42.043Z,0.73
2018-05-01T04:52:45.306Z,0.80
2018-05-01T04:54:48.567Z,0.70
2018-05-01T04:56:51.838Z,0.60
2018-05-01T04:58:55.104Z,0.90
2018-05-01T05:00:59.130Z,0.70
2018-05-01T05:03:02.390Z,0.70
2018-05-01T05:05:05.694Z,0.70
2018-05-01T05:07:09.745Z,0.63
2018-05-01T05:09:13.036Z,1.00
2018-05-01T05:11:16.286Z,0.60
2018-05-01T05:13:20.310Z,0.60
2018-05-01T05:15:23.574Z,0.67
2018-05-01T05:17:26.738Z,0.70
2018-05-01T05:19:30.000Z,0.50
2018-05-01T05:21:33.255Z,0.70
2018-05-01T05:23:37.494Z,0.63
2018-05-01T05:25:40.726Z,0.70
2018-05-01T05:27:43.993Z,0.60
2018-05-01T05:29:46.970Z,0.70
2018-05-01T05:31:50.255Z,0.70
2018-05-01T05:33:53.514Z,0.60
2018-05-01T05:35:56.804Z,0.90
2018-05-01T05:38:00.334Z,0.77
2018-05-01T05:40:03.602Z,0.67
2018-05-01T05:42:06.858Z,0.70
2018-05-01T05:44:10.911Z,0.63
2018-05-01T05:46:13.934Z,0.60
2018-05-01T05:48:16.922Z,0.70
2018-05-01T05:50:20.207Z,0.60
2018-05-01T05:52:23.945Z,0.80
2018-05-01T05:54:27.289Z,0.80
2018-05-01T05:56:30.742Z,0.83
2018-05-01T05:58:34.011Z,0.70
2018-05-01T06:00:38.050Z,1.00
2018-05-01T06:02:41.281Z,0.70
2018-05-01T06:04:45.308Z,0.60
2018-05-01T06:06:49.334Z,0.70
2018-05-01T06:08:52.607Z,0.77
2018-05-01T06:10:56.649Z,0.63
2018-05-01T06:12:59.916Z,0.70
2018-05-01T06:15:03.466Z,0.60
2018-05-01T06:17:06.726Z,0.60
2018-05-01T06:19:09.987Z,0.60
2018-05-01T06:21:13.245Z,0.63
2018-05-01T06:23:16.505Z,0.90
2018-05-01T06:25:19.771Z,0.70
2018-05-01T06:27:23.038Z,0.70
2018-05-01T06:29:27.708Z,0.80
2018-05-01T06:31:31.120Z,0.77
2018-05-01T06:33:34.406Z,0.90
2018-05-01T06:35:37.710Z,0.60
2018-05-01T06:37:41.173Z,0.90
2018-05-01T06:39:44.426Z,0.60
2018-05-01T06:41:47.710Z,0.70
2018-05-01T06:43:51.004Z,0.70
2018-05-01T06:45:54.446Z,0.70
2018-05-01T06:47:57.730Z,0.60
2018-05-01T06:50:01.014Z,0.60
2018-05-01T06:52:04.264Z,1.50
2018-05-01T06:54:07.569Z,0.70
2018-05-01T06:56:10.834Z,1.00
2018-05-01T06:58:14.878Z,0.73
2018-05-01T07:00:18.136Z,0.80
2018-05-01T07:02:22.157Z,0.70
2018-05-01T07:04:25.473Z,1.10
2018-05-01T07:06:29.428Z,0.80
2018-05-01T07:08:33.455Z,0.90
2018-05-01T07:10:37.005Z,0.80
2018-05-01T07:12:40.281Z,0.80
2018-05-01T07:14:43.538Z,0.83
2018-05-01T07:16:46.803Z,1.27
2018-05-01T07:18:50.850Z,0.80
2018-05-01T07:20:54.106Z,0.80
2018-05-01T07:22:58.418Z,0.80
2018-05-01T07:25:01.718Z,1.03
2018-05-01T07:27:04.986Z,1.00
2018-05-01T07:29:09.029Z,0.83
2018-05-01T07:31:12.338Z,1.03
2018-05-01T07:33:15.789Z,1.10
2018-05-01T07:35:19.827Z,1.17
2018-05-01T07:37:23.082Z,1.10
2018-05-01T07:39:27.111Z,1.03
2018-05-01T07:41:30.520Z,1.07
2018-05-01T07:43:33.973Z,1.47
2018-05-01T07:45:37.998Z,1.37
2018-05-01T07:47:41.318Z,1.13
2018-05-01T07:49:44.604Z,0.93
2018-05-01T07:51:47.854Z,1.30
2018-05-01T07:53:51.878Z,1.13
2018-05-01T07:55:55.146Z,1.37
2018-05-01T07:57:59.183Z,0.97
2018-05-01T08:00:02.437Z,1.17
2018-05-01T08:02:06.478Z,1.30
2018-05-01T08:04:09.743Z,1.20
2018-05-01T08:06:13.544Z,1.80
2018-05-01T08:08:17.585Z,1.17
2018-05-01T08:10:20.847Z,1.53
2018-05-01T08:12:24.862Z,1.60
2018-05-01T08:14:28.147Z,1.40
2018-05-01T08:16:31.402Z,1.37
2018-05-01T08:18:34.728Z,1.83
2018-05-01T08:20:38.155Z,1.00
2018-05-01T08:22:41.411Z,1.30
2018-05-01T08:24:45.628Z,1.30
2018-05-01T08:26:48.978Z,1.30
2018-05-01T08:28:52.250Z,1.23
2018-05-01T08:30:55.717Z,2.00
2018-05-01T08:32:58.997Z,1.33
2018-05-01T08:35:02.251Z,1.83
2018-05-01T08:37:05.227Z,1.20
2018-05-01T08:39:08.485Z,1.00
2018-05-01T08:41:11.461Z,1.17
2018-05-01T08:43:14.720Z,1.20
2018-05-01T08:45:18.023Z,1.40
2018-05-01T08:47:21.179Z,1.00
2018-05-01T08:49:24.448Z,1.60
2018-05-01T08:51:28.055Z,2.23
2018-05-01T08:53:31.306Z,1.70
2018-05-01T08:55:34.558Z,1.40
2018-05-01T08:57:38.603Z,1.13
2018-05-01T08:59:41.862Z,1.40
2018-05-01T09:01:45.334Z,1.30
2018-05-01T09:03:49.415Z,1.90
2018-05-01T09:05:52.688Z,1.57
2018-05-01T09:07:55.947Z,1.50
2018-05-01T09:09:59.218Z,1.90
2018-05-01T09:12:03.237Z,2.00
2018-05-01T09:14:06.511Z,1.33
2018-05-01T09:16:10.797Z,1.60
2018-05-01T09:18:14.175Z,1.30
2018-05-01T09:20:17.287Z,1.43
2018-05-01T09:22:20.886Z,1.53
2018-05-01T09:24:24.235Z,1.40
2018-05-01T09:26:28.282Z,1.63
2018-05-01T09:28:31.556Z,1.17
2018-05-01T09:30:34.822Z,1.83
2018-05-01T09:32:38.111Z,1.27
2018-05-01T09:34:41.387Z,1.20
2018-05-01T09:36:44.639Z,1.40
2018-05-01T09:38:48.691Z,1.60
2018-05-01T09:40:51.958Z,2.07
2018-05-01T09:42:55.215Z,1.47
2018-05-01T09:44:58.683Z,1.27
2018-05-01T09:47:02.117Z,1.60
2018-05-01T09:49:06.155Z,1.63
2018-05-01T09:51:09.422Z,1.73
2018-05-01T09:53:14.442Z,1.20
2018-05-01T09:55:18.994Z,1.70
2018-05-01T09:57:23.410Z,0.90
2018-05-01T09:59:28.078Z,1.60
2018-05-01T10:01:32.515Z,1.10
2018-05-01T10:03:37.486Z,1.27
2018-05-01T10:05:42.015Z,1.70
2018-05-01T10:07:46.395Z,1.40
2018-05-01T10:09:50.814Z,1.43
2018-05-01T10:11:55.230Z,1.63
2018-05-01T10:13:59.651Z,1.37
2018-05-01T10:16:03.688Z,1.20
2018-05-01T10:18:08.846Z,1.20
2018-05-01T10:20:13.254Z,1.13
2018-05-01T10:22:17.778Z,1.10
2018-05-01T10:24:22.193Z,1.27
2018-05-01T10:26:26.379Z,1.27
2018-05-01T10:28:30.497Z,0.97
2018-05-01T10:30:34.681Z,1.20
2018-05-01T10:32:39.125Z,1.40
2018-05-01T10:34:43.568Z,1.00
2018-05-01T10:36:47.982Z,1.60
2018-05-01T10:38:52.449Z,1.10
2018-05-01T10:40:57.194Z,1.20
2018-05-01T10:43:01.614Z,0.97
2018-05-01T10:45:06.041Z,0.90
2018-05-01T10:47:10.465Z,1.23
2018-05-01T10:49:15.152Z,1.27
2018-05-01T10:51:19.779Z,1.10
2018-05-01T10:53:24.196Z,1.20
2018-05-01T10:55:28.797Z,1.37
2018-05-01T10:57:33.218Z,1.00
2018-05-01T10:59:37.631Z,1.20
2018-05-01T11:01:42.078Z,0.83
2018-05-01T11:03:46.599Z,1.30
2018-05-01T11:05:51.742Z,0.90
2018-05-01T11:07:56.166Z,1.30
2018-05-01T11:10:00.586Z,1.00
2018-05-01T11:12:04.342Z,1.30
2018-05-01T11:14:08.811Z,0.90
2018-05-01T11:16:13.239Z,0.97
2018-05-01T11:18:17.674Z,1.33
2018-05-01T11:20:22.854Z,1.27
2018-05-01T11:22:27.274Z,1.13
2018-05-01T11:24:31.737Z,1.40
2018-05-01T11:26:36.407Z,1.03
2018-05-01T11:28:40.782Z,1.30
2018-05-01T11:30:45.982Z,1.00
2018-05-01T11:32:50.424Z,0.93
2018-05-01T11:34:54.835Z,0.90
2018-05-01T11:36:59.129Z,1.50
2018-05-01T11:39:03.220Z,1.07
2018-05-01T11:41:07.652Z,1.53
2018-05-01T11:43:12.091Z,1.17
2018-05-01T11:45:17.291Z,1.10
2018-05-01T11:47:21.796Z,1.00
2018-05-01T11:49:26.936Z,1.30
2018-05-01T11:51:31.447Z,1.10
2018-05-01T11:53:36.683Z,1.10
2018-05-01T11:55:41.070Z,1.20
2018-05-01T11:57:46.540Z,1.00
2018-05-01T11:59:52.227Z,0.93
2018-05-01T12:01:56.841Z,1.10
2018-05-01T12:04:01.251Z,1.03
2018-05-01T12:06:05.330Z,0.97
2018-05-01T12:08:09.758Z,1.10
2018-05-01T12:10:14.176Z,1.00
2018-05-01T12:12:18.591Z,0.93
2018-05-01T12:14:23.245Z,0.90
2018-05-01T12:16:27.654Z,1.10
2018-05-01T12:18:32.106Z,1.07
2018-05-01T12:20:36.990Z,1.00
2018-05-01T12:22:41.406Z,1.20
2018-05-01T12:24:45.818Z,0.90
2018-05-01T12:26:50.246Z,1.00
2018-05-01T12:28:54.730Z,1.23
2018-05-01T12:30:59.164Z,0.70
2018-05-01T12:33:03.787Z,1.30
2018-05-01T12:35:08.223Z,1.10
2018-05-01T12:37:12.653Z,1.00
2018-05-01T12:39:17.843Z,0.90
2018-05-01T12:41:22.360Z,1.30
2018-05-01T12:43:26.740Z,1.40
2018-05-01T12:45:31.158Z,0.93
2018-05-01T12:47:35.590Z,1.40
2018-05-01T12:49:40.018Z,1.00
2018-05-01T12:51:44.745Z,0.90
2018-05-01T12:53:49.201Z,0.93
2018-05-01T12:55:53.758Z,1.20
2018-05-01T12:57:58.218Z,1.20
2018-05-01T13:00:02.637Z,1.40
2018-05-01T13:02:07.062Z,0.90
2018-05-01T13:04:11.487Z,1.30
2018-05-01T13:06:16.106Z,0.90
2018-05-01T13:08:21.018Z,1.30
2018-05-01T13:10:25.647Z,1.17
2018-05-01T13:12:30.104Z,1.00
2018-05-01T13:14:34.662Z,1.13
2018-05-01T13:16:39.131Z,0.77
2018-05-01T13:18:44.318Z,1.20
2018-05-01T13:20:48.826Z,1.23
2018-05-01T13:22:53.754Z,1.03
2018-05-01T13:24:57.922Z,1.27
2018-05-01T13:27:02.899Z,1.10
2018-05-01T13:29:07.325Z,1.10
2018-05-01T13:31:11.754Z,1.17
2018-05-01T13:33:16.190Z,1.27
2018-05-01T13:35:21.618Z,1.10
2018-05-01T13:37:26.038Z,1.20
2018-05-01T13:39:30.472Z,1.33
2018-05-01T13:41:35.089Z,1.40
2018-05-01T13:43:40.290Z,1.20
2018-05-01T13:45:44.703Z,1.50
2018-05-01T13:47:49.339Z,1.20
2018-05-01T13:49:53.759Z,1.40
2018-05-01T13:51:57.610Z,1.50
2018-05-01T13:54:02.046Z,1.40
2018-05-01T13:56:06.462Z,1.27
2018-05-01T13:58:10.881Z,1.30
2018-05-01T14:00:15.501Z,1.20
2018-05-01T14:02:19.900Z,2.00
2018-05-01T14:04:24.365Z,1.70
2018-05-01T14:06:29.053Z,0.97
2018-05-01T14:08:33.595Z,1.37
2018-05-01T14:10:37.994Z,1.73
2018-05-01T14:12:42.427Z,1.37
2018-05-01T14:14:46.982Z,1.60
2018-05-01T14:16:51.361Z,1.60
2018-05-01T14:18:55.803Z,1.47
2018-05-01T14:21:00.219Z,1.60
2018-05-01T14:23:04.674Z,1.10
2018-05-01T14:25:09.111Z,1.53
2018-05-01T14:27:13.527Z,1.40
2018-05-01T14:29:17.946Z,1.73
2018-05-01T14:31:22.392Z,1.43
2018-05-01T14:33:26.816Z,1.80
2018-05-01T14:35:31.241Z,2.03
2018-05-01T14:37:35.869Z,1.63
2018-05-01T14:39:41.053Z,1.60
2018-05-01T14:41:45.264Z,1.33
2018-05-01T14:43:49.694Z,1.90
2018-05-01T14:45:54.120Z,1.47
2018-05-01T14:47:58.534Z,1.63
2018-05-01T14:50:02.962Z,1.53
2018-05-01T14:52:07.378Z,1.63
2018-05-01T14:54:12.069Z,1.40
2018-05-01T14:56:17.214Z,2.47
2018-05-01T14:58:21.631Z,1.67
2018-05-01T15:00:26.069Z,1.33
2018-05-01T15:02:30.289Z,1.30
2018-05-01T15:04:34.433Z,2.00
2018-05-01T15:06:38.890Z,1.50
2018-05-01T15:08:43.306Z,1.50
2018-05-01T15:10:47.723Z,1.50
2018-05-01T15:12:51.922Z,2.10
2018-05-01T15:14:56.314Z,1.80
2018-05-01T15:17:00.752Z,2.70
2018-05-01T15:19:05.502Z,1.50
2018-05-01T15:21:09.922Z,2.17
2018-05-01T15:23:14.331Z,2.00
2018-05-01T15:25:18.763Z,1.63
2018-05-01T15:27:22.951Z,2.30
2018-05-01T15:29:27.379Z,1.57
2018-05-01T15:31:31.818Z,2.27
2018-05-01T15:33:36.999Z,1.63
2018-05-01T15:35:41.418Z,1.60
2018-05-01T15:37:45.860Z,2.03
2018-05-01T15:39:50.479Z,2.43
2018-05-01T15:41:54.898Z,1.73
2018-05-01T15:43:59.402Z,1.40
2018-05-01T15:46:03.845Z,1.67
2018-05-01T15:48:08.446Z,1.60
2018-05-01T15:50:12.603Z,1.50
2018-05-01T15:52:17.801Z,1.90
2018-05-01T15:54:22.215Z,1.60
2018-05-01T15:56:27.126Z,1.93
2018-05-01T15:58:31.579Z,1.73
2018-05-01T16:00:37.555Z,1.63
2018-05-01T16:02:42.418Z,1.20
2018-05-01T16:04:47.564Z,2.10
2018-05-01T16:06:51.996Z,2.33
2018-05-01T16:08:56.409Z,1.53
2018-05-01T16:11:00.596Z,2.03
2018-05-01T16:13:05.254Z,2.00
2018-05-01T16:15:09.450Z,3.10
2018-05-01T16:17:13.871Z,2.70
2018-05-01T16:19:18.057Z,3.83
2018-05-01T16:21:22.487Z,2.63
2018-05-01T16:23:27.226Z,3.27
2018-05-01T16:25:33.159Z,2.60
2018-05-01T16:27:37.595Z,4.07
2018-05-01T16:29:42.220Z,2.77
2018-05-01T16:31:46.635Z,2.83
2018-05-01T16:33:51.095Z,3.30
2018-05-01T16:35:55.853Z,2.80
2018-05-01T16:38:01.094Z,2.57
2018-05-01T16:40:05.515Z,2.27
2018-05-01T16:42:09.943Z,3.00
2018-05-01T16:44:14.432Z,3.43
2018-05-01T16:46:19.778Z,3.33
2018-05-01T16:48:24.203Z,2.83
2018-05-01T16:50:28.629Z,3.17
2018-05-01T16:52:33.065Z,3.80
2018-05-01T16:54:38.514Z,2.57
2018-05-01T16:56:43.719Z,3.00
2018-05-01T16:58:48.133Z,2.60
2018-05-01T17:00:52.570Z,1.97
2018-05-01T17:02:57.182Z,2.60
2018-05-01T17:05:01.602Z,2.40
2018-05-01T17:07:06.022Z,2.90
2018-05-01T17:09:10.444Z,1.60
2018-05-01T17:11:14.945Z,2.60
2018-05-01T17:13:19.346Z,2.23
2018-05-01T17:15:23.771Z,2.20
2018-05-01T17:17:28.190Z,2.47
2018-05-01T17:19:32.618Z,2.97
2018-05-01T17:21:37.034Z,2.10
2018-05-01T17:23:41.463Z,2.53
2018-05-01T17:25:46.888Z,2.13
2018-05-01T17:27:51.293Z,2.30
2018-05-01T17:29:55.722Z,1.97
2018-05-01T17:32:00.159Z,2.00
2018-05-01T17:34:05.338Z,1.90
2018-05-01T17:36:09.751Z,2.53
2018-05-01T17:38:13.967Z,1.17
2018-05-01T17:40:19.121Z,2.53
2018-05-01T17:42:23.553Z,2.27
2018-05-01T17:44:27.978Z,2.53
2018-05-01T17:46:32.126Z,1.93
2018-05-01T17:48:36.533Z,2.77
2018-05-01T17:50:41.431Z,2.20
2018-05-01T17:52:46.033Z,1.83
2018-05-01T17:54:50.250Z,2.00
2018-05-01T17:56:54.695Z,1.90
2018-05-01T17:58:59.882Z,1.60
2018-05-01T18:01:04.306Z,2.67
2018-05-01T18:03:08.738Z,2.13
2018-05-01T18:05:13.158Z,2.37
2018-05-01T18:07:17.578Z,2.20
2018-05-01T18:09:22.206Z,2.60
2018-05-01T18:11:26.635Z,2.63
2018-05-01T18:13:31.820Z,1.70
2018-05-01T18:15:36.360Z,2.53
2018-05-01T18:17:40.782Z,2.80
2018-05-01T18:19:45.208Z,1.90
2018-05-01T18:21:49.626Z,3.30
2018-05-01T18:23:54.050Z,2.83
2018-05-01T18:25:59.256Z,2.50
2018-05-01T18:28:03.370Z,3.00
2018-05-01T18:30:07.795Z,1.30
2018-05-01T18:32:12.206Z,1.93
2018-05-01T18:34:17.030Z,2.40
2018-05-01T18:36:22.090Z,2.07
2018-05-01T18:38:26.635Z,1.70
2018-05-01T18:40:31.155Z,2.80
2018-05-01T18:42:35.574Z,2.03
2018-05-01T18:44:40.010Z,1.67
2018-05-01T18:46:44.626Z,2.57
2018-05-01T18:48:49.042Z,2.00
2018-05-01T18:50:53.616Z,1.17
2018-05-01T18:52:58.191Z,1.40
2018-05-01T18:55:02.373Z,2.50
2018-05-01T18:57:06.799Z,2.60
2018-05-01T18:59:11.223Z,2.40
2018-05-01T19:01:15.643Z,2.13
2018-05-01T19:03:19.866Z,1.90
2018-05-01T19:05:24.305Z,2.57
2018-05-01T19:07:28.734Z,2.50
2018-05-01T19:09:33.938Z,2.63
2018-05-01T19:11:38.134Z,2.27
2018-05-01T19:13:42.550Z,2.97
2018-05-01T19:15:47.069Z,2.30
2018-05-01T19:17:51.486Z,2.00
2018-05-01T19:19:55.695Z,1.90
2018-05-01T19:22:01.054Z,2.47
2018-05-01T19:24:05.246Z,2.20
2018-05-01T19:26:09.366Z,1.93
2018-05-01T19:28:13.792Z,2.30
2018-05-01T19:30:17.910Z,2.73
2018-05-01T19:32:22.396Z,1.80
2018-05-01T19:34:27.623Z,2.17
2018-05-01T19:36:32.175Z,2.43
2018-05-01T19:38:36.604Z,2.17
2018-05-01T19:40:41.046Z,2.77
2018-05-01T19:42:46.232Z,1.43
2018-05-01T19:44:50.657Z,1.77
2018-05-01T19:46:55.490Z,1.70
2018-05-01T19:48:59.906Z,1.57
2018-05-01T19:51:04.367Z,2.43
2018-05-01T19:53:08.965Z,1.60
2018-05-01T19:55:14.150Z,2.23
2018-05-01T19:57:18.588Z,1.50
2018-05-01T19:59:23.009Z,3.00
2018-05-01T20:01:27.430Z,1.87
2018-05-01T20:03:32.050Z,1.90
2018-05-01T20:05:36.466Z,2.23
2018-05-01T20:07:40.890Z,2.33
2018-05-01T20:09:45.799Z,2.13
2018-05-01T20:11:50.251Z,2.10
2018-05-01T20:13:54.662Z,2.10
2018-05-01T20:15:58.751Z,1.27
2018-05-01T20:18:03.183Z,2.10
2018-05-01T20:20:07.793Z,2.17
2018-05-01T20:22:12.230Z,1.80
2018-05-01T20:24:16.675Z,2.37
2018-05-01T20:26:21.107Z,1.77
2018-05-01T20:28:25.532Z,2.43
2018-05-01T20:30:29.980Z,2.60
2018-05-01T20:32:34.605Z,2.30
2018-05-01T20:34:39.020Z,2.80
2018-05-01T20:36:43.467Z,1.87
2018-05-01T20:38:48.652Z,2.70
2018-05-01T20:40:53.070Z,2.50
2018-05-01T20:42:57.722Z,2.03
2018-05-01T20:45:02.907Z,2.10
2018-05-01T20:47:07.530Z,2.30
2018-05-01T20:49:11.958Z,2.73
2018-05-01T20:51:16.388Z,2.43
2018-05-01T20:53:21.015Z,3.57
2018-05-01T20:55:25.435Z,1.90
2018-05-01T20:57:29.893Z,2.20
2018-05-01T20:59:35.081Z,2.80
2018-05-01T21:01:39.514Z,2.30
2018-05-01T21:03:43.938Z,1.83
2018-05-01T21:05:49.263Z,3.50
2018-05-01T21:07:53.694Z,3.00
2018-05-01T21:09:58.868Z,1.87
2018-05-01T21:12:03.290Z,2.87
2018-05-01T21:14:07.706Z,2.33
2018-05-01T21:16:12.122Z,2.40
2018-05-01T21:18:16.231Z,2.17
2018-05-01T21:20:20.662Z,2.00
2018-05-01T21:22:25.847Z,2.40
2018-05-01T21:24:31.066Z,2.23
2018-05-01T21:26:36.251Z,2.10
2018-05-01T21:28:40.867Z,1.97
2018-05-01T21:30:45.294Z,2.47
2018-05-01T21:32:49.786Z,2.80
2018-05-01T21:34:54.638Z,2.07
2018-05-01T21:36:59.778Z,2.27
2018-05-01T21:39:03.290Z,2.63
2018-05-01T21:41:08.294Z,1.97
2018-05-01T21:43:13.438Z,2.70
2018-05-01T21:45:17.948Z,2.03
2018-05-01T21:47:22.364Z,2.90
2018-05-01T21:49:26.757Z,2.47
2018-05-01T21:51:31.198Z,1.97
2018-05-01T21:53:35.624Z,2.80
2018-05-01T21:55:40.226Z,2.47
2018-05-01T21:57:44.752Z,2.60
2018-05-01T21:59:49.897Z,2.90
2018-05-01T22:01:54.404Z,2.40
2018-05-01T22:03:59.746Z,2.90
2018-05-01T22:06:04.260Z,2.00
2018-05-01T22:08:09.413Z,1.93
2018-05-01T22:10:13.830Z,2.60
2018-05-01T22:12:18.328Z,2.30
2018-05-01T22:14:23.503Z,1.90
2018-05-01T22:16:27.983Z,2.07
2018-05-01T22:18:32.369Z,2.67
2018-05-01T22:20:36.825Z,2.57
2018-05-01T22:22:41.462Z,2.10
2018-05-01T22:24:45.876Z,2.30
2018-05-01T22:26:50.521Z,1.60
2018-05-01T22:28:55.080Z,1.87
2018-05-01T22:31:00.047Z,2.07
2018-05-01T22:33:04.154Z,2.30
2018-05-01T22:35:08.882Z,2.37
2018-05-01T22:37:13.314Z,2.27
2018-05-01T22:39:17.932Z,2.43
2018-05-01T22:41:22.361Z,2.27
2018-05-01T22:43:27.546Z,2.20
2018-05-01T22:45:31.968Z,2.13
2018-05-01T22:47:36.483Z,1.73
2018-05-01T22:49:40.903Z,2.30
2018-05-01T22:51:45.282Z,1.80
2018-05-01T22:53:49.727Z,1.90
2018-05-01T22:55:54.150Z,2.33
2018-05-01T22:57:58.561Z,2.00
2018-05-01T23:00:03.000Z,2.10
2018-05-01T23:02:06.929Z,2.37
2018-05-01T23:04:11.345Z,2.10
2018-05-01T23:06:16.533Z,2.20
2018-05-01T23:08:20.962Z,2.13
2018-05-01T23:10:25.402Z,1.73
2018-05-01T23:12:29.987Z,1.80
2018-05-01T23:14:34.385Z,1.80
2018-05-01T23:16:39.028Z,1.90
2018-05-01T23:18:43.409Z,2.20
2018-05-01T23:20:47.822Z,2.50
2018-05-01T23:22:53.093Z,1.83
2018-05-01T23:24:58.243Z,1.70
2018-05-01T23:27:02.653Z,2.27
2018-05-01T23:29:07.099Z,1.93
2018-05-01T23:31:12.282Z,2.23
2018-05-01T23:33:16.716Z,2.23
2018-05-01T23:35:21.230Z,2.00
2018-05-01T23:37:26.376Z,2.47
2018-05-01T23:39:30.893Z,1.90
2018-05-01T23:41:35.298Z,2.33
2018-05-01T23:43:39.714Z,2.30
2018-05-01T23:45:44.334Z,1.93
2018-05-01T23:47:48.755Z,2.37
2018-05-01T23:49:53.272Z,1.97
2018-05-01T23:51:58.416Z,2.80
2018-05-01T23:54:02.923Z,2.40
2018-05-01T23:56:07.049Z,2.57
2018-05-01T23:58:11.486Z,2.93
